createdAt,value
2023-05-01T00:00:37.644Z,39.68
2023-05-01T00:03:04.490Z,39.47
2023-05-01T00:05:31.719Z,39.56
2023-05-01T00:07:58.580Z,39.66
2023-05-01T00:10:25.603Z,39.60
2023-05-01T00:12:52.411Z,39.65
2023-05-01T00:15:19.188Z,39.62
2023-05-01T00:17:46.160Z,39.70
2023-05-01T00:20:13.760Z,39.77
2023-05-01T00:22:40.528Z,39.83
2023-05-01T00:25:08.003Z,39.92
2023-05-01T00:27:34.850Z,40.07
2023-05-01T00:30:01.696Z,40.10
2023-05-01T00:32:28.539Z,40.02
2023-05-01T00:34:57.589Z,40.15
2023-05-01T00:37:26.833Z,40.12
2023-05-01T00:39:53.657Z,40.19
2023-05-01T00:42:20.601Z,40.20
2023-05-01T00:44:47.369Z,40.35
2023-05-01T00:47:14.632Z,40.40
2023-05-01T00:49:43.719Z,40.41
2023-05-01T00:52:11.327Z,40.40
2023-05-01T00:54:38.800Z,40.59
2023-05-01T00:57:08.192Z,40.53
2023-05-01T00:59:35.014Z,40.65
2023-05-01T01:02:02.262Z,40.80
2023-05-01T01:04:31.498Z,40.50
2023-05-01T01:07:05.437Z,40.84
2023-05-01T01:09:42.108Z,40.90
2023-05-01T01:12:49.847Z,40.92
2023-05-01T01:15:28.234Z,41.01
2023-05-01T01:18:12.967Z,41.27
2023-05-01T01:21:08.983Z,41.11
2023-05-01T01:23:41.965Z,41.23
2023-05-01T01:26:24.987Z,40.99
2023-05-01T01:29:28.824Z,41.00
2023-05-01T01:32:18.259Z,41.20
2023-05-01T01:34:50.380Z,41.20
2023-05-01T01:37:25.315Z,41.35
2023-05-01T01:40:05.614Z,41.44
2023-05-01T01:42:49.785Z,41.51
2023-05-01T01:45:23.084Z,41.63
2023-05-01T01:47:51.869Z,41.42
2023-05-01T01:50:22.609Z,41.66
2023-05-01T01:52:52.012Z,41.56
2023-05-01T01:55:27.535Z,41.90
2023-05-01T01:57:54.691Z,41.67
2023-05-01T02:00:22.525Z,41.87
2023-05-01T02:02:50.736Z,41.71
2023-05-01T02:05:19.396Z,41.88
2023-05-01T02:07:48.911Z,41.82
2023-05-01T02:10:16.323Z,42.02
2023-05-01T02:12:46.712Z,41.89
2023-05-01T02:15:16.551Z,41.92
2023-05-01T02:17:43.806Z,42.06
2023-05-01T02:20:12.654Z,42.26
2023-05-01T02:22:46.045Z,42.18
2023-05-01T02:25:13.879Z,42.26
2023-05-01T02:27:57.963Z,41.82
2023-05-01T02:30:24.855Z,42.40
2023-05-01T02:32:51.683Z,42.63
2023-05-01T02:35:18.816Z,42.52
2023-05-01T02:37:46.286Z,42.24
2023-05-01T02:40:15.476Z,42.60
2023-05-01T02:42:44.744Z,42.55
2023-05-01T02:45:20.547Z,42.62
2023-05-01T02:47:51.978Z,42.52
2023-05-01T02:50:20.195Z,42.56
2023-05-01T02:52:47.559Z,42.45
2023-05-01T02:55:15.178Z,42.68
2023-05-01T02:57:41.977Z,42.79
2023-05-01T03:00:12.904Z,42.73
2023-05-01T03:02:42.914Z,42.98
2023-05-01T03:05:09.953Z,43.00
2023-05-01T03:07:36.989Z,42.98
2023-05-01T03:10:05.244Z,42.87
2023-05-01T03:12:32.159Z,42.85
2023-05-01T03:14:59.131Z,42.92
2023-05-01T03:17:26.163Z,43.09
2023-05-01T03:19:53.210Z,42.96
2023-05-01T03:22:20.079Z,43.00
2023-05-01T03:24:47.598Z,42.80
2023-05-01T03:27:14.426Z,42.99
2023-05-01T03:29:41.166Z,43.06
2023-05-01T03:32:08.003Z,43.15
2023-05-01T03:34:35.354Z,43.15
2023-05-01T03:37:02.152Z,42.99
2023-05-01T03:39:28.951Z,43.20
2023-05-01T03:41:55.790Z,43.54
2023-05-01T03:44:22.623Z,43.72
2023-05-01T03:46:49.363Z,43.53
2023-05-01T03:49:16.136Z,43.42
2023-05-01T03:51:42.929Z,43.35
2023-05-01T03:54:09.666Z,43.60
2023-05-01T03:56:36.977Z,43.52
2023-05-01T03:59:03.965Z,43.60
2023-05-01T04:01:33.459Z,43.63
2023-05-01T04:04:00.356Z,43.58
2023-05-01T04:06:28.127Z,43.91
2023-05-01T04:08:54.916Z,43.70
2023-05-01T04:11:21.646Z,43.51
2023-05-01T04:13:48.404Z,43.79
2023-05-01T04:16:15.198Z,43.95
2023-05-01T04:18:42.559Z,43.77
2023-05-01T04:21:09.362Z,44.02
2023-05-01T04:23:36.209Z,44.22
2023-05-01T04:26:04.067Z,44.06
2023-05-01T04:28:31.063Z,44.05
2023-05-01T04:30:58.130Z,44.14
2023-05-01T04:33:24.956Z,44.05
2023-05-01T04:35:51.827Z,44.08
2023-05-01T04:38:18.578Z,44.10
2023-05-01T04:40:45.618Z,44.25
2023-05-01T04:43:13.137Z,44.16
2023-05-01T04:45:39.903Z,44.11
2023-05-01T04:48:06.939Z,44.35
2023-05-01T04:50:33.755Z,44.26
2023-05-01T04:53:00.515Z,44.45
2023-05-01T04:55:29.205Z,44.34
2023-05-01T04:57:57.746Z,44.66
2023-05-01T05:00:24.629Z,44.71
2023-05-01T05:02:51.542Z,44.59
2023-05-01T05:05:18.415Z,44.73
2023-05-01T05:07:45.173Z,44.72
2023-05-01T05:10:11.924Z,44.77
2023-05-01T05:12:38.700Z,44.70
2023-05-01T05:15:06.516Z,44.41
2023-05-01T05:17:33.320Z,44.43
2023-05-01T05:20:00.470Z,44.69
2023-05-01T05:22:27.531Z,44.37
2023-05-01T05:25:04.113Z,44.58
2023-05-01T05:27:36.418Z,44.41
2023-05-01T05:30:07.314Z,44.46
2023-05-01T05:32:34.540Z,44.48
2023-05-01T05:35:01.606Z,44.27
2023-05-01T05:37:28.378Z,44.08
2023-05-01T05:39:55.355Z,44.00
2023-05-01T05:42:22.277Z,44.01
2023-05-01T05:44:49.045Z,43.85
2023-05-01T05:47:15.904Z,43.96
2023-05-01T05:49:42.762Z,43.80
2023-05-01T05:52:09.606Z,43.80
2023-05-01T05:54:36.473Z,43.25
2023-05-01T05:57:03.813Z,43.44
2023-05-01T05:59:30.596Z,43.45
2023-05-01T06:01:57.590Z,43.42
2023-05-01T06:04:24.517Z,43.57
2023-05-01T06:06:52.135Z,43.37
2023-05-01T06:09:20.293Z,42.93
2023-05-01T06:11:47.688Z,42.50
2023-05-01T06:14:15.213Z,42.46
2023-05-01T06:16:42.017Z,42.19
2023-05-01T06:19:10.344Z,42.17
2023-05-01T06:21:37.102Z,42.18
2023-05-01T06:24:04.252Z,42.07
2023-05-01T06:26:31.302Z,41.97
2023-05-01T06:28:58.056Z,41.96
2023-05-01T06:31:25.094Z,42.01
2023-05-01T06:33:52.836Z,41.94
2023-05-01T06:36:19.722Z,42.25
2023-05-01T06:38:51.054Z,42.29
2023-05-01T06:41:17.998Z,42.24
2023-05-01T06:43:44.761Z,42.26
2023-05-01T06:46:12.465Z,42.08
2023-05-01T06:48:39.330Z,42.09
2023-05-01T06:51:06.196Z,42.12
2023-05-01T06:53:32.955Z,42.20
2023-05-01T06:55:59.793Z,42.09
2023-05-01T06:58:26.591Z,41.94
2023-05-01T07:00:54.337Z,41.84
2023-05-01T07:03:24.120Z,41.55
2023-05-01T07:05:50.968Z,41.23
2023-05-01T07:08:21.396Z,40.99
2023-05-01T07:10:50.021Z,41.32
2023-05-01T07:13:17.195Z,41.41
2023-05-01T07:15:43.952Z,41.45
2023-05-01T07:18:12.393Z,41.39
2023-05-01T07:20:39.344Z,41.25
2023-05-01T07:23:07.473Z,41.40
2023-05-01T07:25:34.498Z,41.35
2023-05-01T07:28:04.357Z,40.78
2023-05-01T07:30:32.948Z,40.57
2023-05-01T07:32:59.814Z,40.70
2023-05-01T07:35:26.583Z,40.47
2023-05-01T07:37:59.485Z,40.63
2023-05-01T07:40:26.345Z,40.84
2023-05-01T07:42:55.898Z,40.53
2023-05-01T07:45:22.711Z,40.66
2023-05-01T07:47:50.014Z,40.41
2023-05-01T07:50:17.154Z,40.41
2023-05-01T07:52:43.957Z,40.25
2023-05-01T07:55:10.804Z,40.66
2023-05-01T07:57:37.603Z,40.34
2023-05-01T08:00:05.110Z,40.51
2023-05-01T08:02:32.043Z,40.47
2023-05-01T08:04:58.998Z,39.95
2023-05-01T08:07:25.950Z,40.13
2023-05-01T08:09:52.784Z,39.61
2023-05-01T08:12:19.586Z,39.85
2023-05-01T08:14:46.386Z,39.94
2023-05-01T08:17:13.333Z,39.86
2023-05-01T08:19:40.093Z,39.81
2023-05-01T08:22:06.856Z,39.56
2023-05-01T08:24:33.644Z,39.90
2023-05-01T08:27:00.852Z,39.65
2023-05-01T08:29:27.674Z,39.49
2023-05-01T08:31:56.863Z,39.32
2023-05-01T08:34:24.070Z,39.61
2023-05-01T08:36:50.994Z,39.63
2023-05-01T08:39:17.763Z,39.33
2023-05-01T08:41:47.221Z,38.95
2023-05-01T08:44:16.607Z,38.75
2023-05-01T08:47:13.277Z,38.83
2023-05-01T08:49:42.113Z,38.51
2023-05-01T08:52:11.956Z,38.35
2023-05-01T08:54:47.136Z,37.89
2023-05-01T08:57:14.172Z,38.01
2023-05-01T08:59:41.354Z,38.19
2023-05-01T09:02:09.825Z,37.92
2023-05-01T09:04:41.446Z,38.16
2023-05-01T09:07:09.874Z,38.46
2023-05-01T09:09:36.977Z,38.05
2023-05-01T09:12:35.551Z,37.94
2023-05-01T09:15:03.819Z,37.59
2023-05-01T09:17:32.627Z,37.44
2023-05-01T09:20:02.014Z,37.31
2023-05-01T09:22:30.760Z,37.39
2023-05-01T09:24:57.546Z,37.40
2023-05-01T09:27:25.199Z,37.05
2023-05-01T09:29:51.982Z,36.84
2023-05-01T09:32:29.730Z,36.73
2023-05-01T09:35:18.073Z,37.09
2023-05-01T09:37:49.803Z,37.27
2023-05-01T09:40:16.610Z,37.02
2023-05-01T09:42:55.948Z,37.09
2023-05-01T09:45:23.925Z,37.11
2023-05-01T09:47:50.743Z,37.11
2023-05-01T09:50:35.030Z,36.96
2023-05-01T09:53:04.558Z,36.56
2023-05-01T09:55:31.517Z,36.61
2023-05-01T09:58:01.455Z,36.48
2023-05-01T10:00:28.309Z,36.33
2023-05-01T10:02:55.339Z,36.34
2023-05-01T10:05:23.086Z,36.32
2023-05-01T10:08:03.702Z,36.13
2023-05-01T10:10:30.743Z,35.63
2023-05-01T10:13:21.537Z,36.01
2023-05-01T10:15:50.020Z,36.06
2023-05-01T10:18:18.334Z,36.27
2023-05-01T10:20:45.231Z,36.27
2023-05-01T10:23:12.354Z,36.40
2023-05-01T10:25:41.703Z,35.89
2023-05-01T10:28:09.673Z,36.08
2023-05-01T10:30:38.291Z,35.95
2023-05-01T10:33:05.783Z,35.95
2023-05-01T10:35:38.168Z,35.83
2023-05-01T10:38:09.507Z,35.83
2023-05-01T10:40:39.286Z,35.31
2023-05-01T10:43:29.615Z,35.72
2023-05-01T10:46:08.485Z,35.78
2023-05-01T10:48:38.161Z,35.93
2023-05-01T10:51:21.157Z,35.36
2023-05-01T10:53:49.930Z,35.41
2023-05-01T10:56:25.688Z,35.98
2023-05-01T10:59:00.832Z,35.90
2023-05-01T11:01:32.317Z,35.56
2023-05-01T11:04:05.324Z,34.82
2023-05-01T11:06:32.936Z,34.68
2023-05-01T11:09:00.936Z,34.71
2023-05-01T11:11:30.702Z,34.96
2023-05-01T11:14:02.795Z,34.99
2023-05-01T11:16:39.548Z,35.01
2023-05-01T11:19:23.139Z,33.95
2023-05-01T11:21:54.177Z,33.82
2023-05-01T11:24:21.125Z,34.22
2023-05-01T11:26:49.154Z,34.16
2023-05-01T11:29:15.922Z,33.67
2023-05-01T11:31:42.768Z,33.91
2023-05-01T11:34:10.498Z,34.38
2023-05-01T11:36:51.561Z,33.93
2023-05-01T11:39:18.741Z,33.79
2023-05-01T11:41:46.662Z,33.88
2023-05-01T11:44:17.419Z,33.52
2023-05-01T11:46:44.538Z,33.73
2023-05-01T11:49:11.814Z,33.77
2023-05-01T11:51:38.660Z,33.96
2023-05-01T11:54:11.836Z,33.66
2023-05-01T11:56:41.062Z,34.84
2023-05-01T11:59:16.948Z,34.17
2023-05-01T12:01:47.481Z,33.74
2023-05-01T12:04:31.660Z,33.58
2023-05-01T12:06:59.293Z,33.38
2023-05-01T12:09:27.429Z,32.87
2023-05-01T12:11:54.661Z,32.93
2023-05-01T12:14:22.088Z,33.10
2023-05-01T12:16:49.544Z,32.81
2023-05-01T12:19:17.589Z,32.26
2023-05-01T12:21:44.416Z,32.33
2023-05-01T12:24:17.247Z,32.06
2023-05-01T12:26:45.740Z,31.27
2023-05-01T12:29:12.869Z,31.56
2023-05-01T12:31:48.684Z,31.05
2023-05-01T12:34:15.572Z,31.29
2023-05-01T12:36:42.384Z,31.41
2023-05-01T12:39:14.252Z,30.44
2023-05-01T12:41:48.223Z,30.69
2023-05-01T12:44:20.121Z,30.55
2023-05-01T12:47:01.308Z,30.55
2023-05-01T12:49:30.087Z,30.31
2023-05-01T12:52:00.543Z,30.30
2023-05-01T12:54:31.696Z,29.79
2023-05-01T12:57:14.477Z,29.99
2023-05-01T12:59:44.587Z,29.98
2023-05-01T13:02:17.248Z,29.57
2023-05-01T13:04:44.833Z,29.48
2023-05-01T13:07:16.591Z,29.36
2023-05-01T13:09:55.888Z,29.03
2023-05-01T13:12:27.260Z,29.91
2023-05-01T13:14:54.586Z,29.46
2023-05-01T13:17:30.638Z,28.96
2023-05-01T13:20:07.336Z,28.91
2023-05-01T13:22:39.601Z,28.31
2023-05-01T13:25:17.382Z,28.05
2023-05-01T13:27:52.623Z,27.86
2023-05-01T13:30:22.126Z,27.76
2023-05-01T13:32:49.657Z,28.07
2023-05-01T13:35:25.017Z,28.15
2023-05-01T13:37:53.258Z,27.53
2023-05-01T13:40:21.007Z,27.70
2023-05-01T13:42:52.572Z,27.81
2023-05-01T13:45:23.059Z,27.40
2023-05-01T13:47:51.818Z,27.67
2023-05-01T13:50:18.907Z,27.61
2023-05-01T13:52:46.056Z,27.72
2023-05-01T13:55:14.781Z,27.11
2023-05-01T13:57:43.420Z,26.57
2023-05-01T14:00:19.143Z,26.86
2023-05-01T14:02:48.840Z,27.25
2023-05-01T14:05:16.648Z,27.14
2023-05-01T14:07:53.574Z,27.13
2023-05-01T14:10:21.851Z,26.92
2023-05-01T14:12:48.653Z,26.76
2023-05-01T14:15:15.413Z,26.79
2023-05-01T14:17:42.267Z,26.58
2023-05-01T14:20:09.345Z,25.93
2023-05-01T14:22:52.353Z,26.15
2023-05-01T14:25:29.506Z,26.34
2023-05-01T14:27:58.369Z,26.49
2023-05-01T14:30:33.586Z,26.55
2023-05-01T14:33:12.412Z,26.40
2023-05-01T14:35:50.933Z,26.59
2023-05-01T14:38:19.783Z,26.71
2023-05-01T14:40:47.294Z,26.15
2023-05-01T14:43:19.479Z,26.28
2023-05-01T14:45:46.846Z,26.41
2023-05-01T14:48:36.835Z,26.22
2023-05-01T14:51:06.567Z,25.78
2023-05-01T14:53:33.459Z,25.97
2023-05-01T14:56:00.434Z,25.83
2023-05-01T14:58:27.264Z,25.14
2023-05-01T15:00:54.065Z,24.96
2023-05-01T15:03:20.887Z,25.37
2023-05-01T15:05:47.762Z,25.77
2023-05-01T15:08:14.577Z,25.43
2023-05-01T15:10:42.168Z,25.31
2023-05-01T15:13:09.415Z,25.87
2023-05-01T15:15:36.247Z,25.86
2023-05-01T15:18:03.900Z,25.62
2023-05-01T15:20:31.388Z,25.46
2023-05-01T15:22:58.160Z,25.45
2023-05-01T15:25:25.698Z,25.22
2023-05-01T15:27:52.497Z,25.48
2023-05-01T15:30:19.277Z,25.62
2023-05-01T15:32:46.292Z,25.78
2023-05-01T15:35:13.405Z,25.92
2023-05-01T15:37:40.503Z,25.87
2023-05-01T15:40:08.185Z,25.83
2023-05-01T15:42:34.949Z,25.78
2023-05-01T15:45:03.353Z,25.79
2023-05-01T15:47:30.215Z,25.92
2023-05-01T15:49:57.307Z,26.22
2023-05-01T15:52:24.243Z,26.08
2023-05-01T15:54:51.895Z,25.75
2023-05-01T15:57:18.795Z,26.16
2023-05-01T15:59:45.562Z,25.83
2023-05-01T16:02:12.779Z,26.00
2023-05-01T16:04:39.659Z,26.17
2023-05-01T16:07:08.661Z,25.96
2023-05-01T16:09:35.600Z,25.86
2023-05-01T16:12:03.003Z,25.72
2023-05-01T16:14:29.899Z,26.24
2023-05-01T16:16:57.042Z,26.02
2023-05-01T16:19:23.898Z,25.83
2023-05-01T16:21:50.792Z,25.95
2023-05-01T16:24:17.645Z,26.17
2023-05-01T16:26:44.505Z,26.22
2023-05-01T16:29:11.970Z,26.51
2023-05-01T16:31:41.771Z,26.02
2023-05-01T16:34:11.828Z,26.24
2023-05-01T16:36:42.521Z,25.74
2023-05-01T16:39:21.602Z,26.20
2023-05-01T16:41:53.784Z,26.62
2023-05-01T16:44:22.900Z,26.40
2023-05-01T16:46:58.726Z,26.41
2023-05-01T16:49:27.456Z,26.51
2023-05-01T16:51:57.004Z,26.18
2023-05-01T16:54:32.252Z,26.10
2023-05-01T16:56:59.283Z,26.24
2023-05-01T16:59:27.903Z,25.96
2023-05-01T17:01:54.912Z,26.19
2023-05-01T17:04:21.811Z,26.09
2023-05-01T17:06:48.768Z,25.88
2023-05-01T17:09:15.642Z,26.33
2023-05-01T17:11:43.048Z,25.99
2023-05-01T17:14:09.889Z,26.25
2023-05-01T17:16:36.743Z,26.19
2023-05-01T17:19:08.730Z,26.14
2023-05-01T17:21:36.018Z,26.22
2023-05-01T17:24:02.903Z,26.12
2023-05-01T17:26:29.664Z,26.34
2023-05-01T17:28:58.330Z,26.49
2023-05-01T17:31:25.257Z,26.71
2023-05-01T17:33:54.653Z,27.01
2023-05-01T17:36:23.276Z,27.04
2023-05-01T17:38:54.277Z,27.19
2023-05-01T17:41:21.187Z,27.30
2023-05-01T17:43:48.153Z,27.17
2023-05-01T17:46:15.841Z,27.51
2023-05-01T17:48:42.707Z,27.49
2023-05-01T17:51:09.749Z,27.52
2023-05-01T17:53:37.746Z,27.63
2023-05-01T17:56:04.583Z,27.67
2023-05-01T17:58:31.343Z,27.88
2023-05-01T18:00:58.979Z,27.74
2023-05-01T18:03:26.006Z,28.01
2023-05-01T18:05:53.820Z,28.16
2023-05-01T18:08:20.626Z,28.20
2023-05-01T18:10:47.403Z,28.20
2023-05-01T18:13:16.594Z,28.45
2023-05-01T18:15:43.839Z,28.47
2023-05-01T18:18:10.869Z,28.58
2023-05-01T18:20:37.774Z,28.69
2023-05-01T18:23:04.785Z,28.80
2023-05-01T18:25:32.605Z,28.91
2023-05-01T18:27:59.572Z,29.03
2023-05-01T18:30:28.910Z,29.07
2023-05-01T18:32:56.127Z,29.27
2023-05-01T18:35:23.285Z,29.11
2023-05-01T18:37:50.969Z,29.24
2023-05-01T18:40:17.945Z,29.50
2023-05-01T18:42:47.142Z,30.02
2023-05-01T18:45:14.087Z,30.57
2023-05-01T18:47:41.738Z,30.78
2023-05-01T18:50:09.813Z,30.93
2023-05-01T18:52:37.262Z,31.19
2023-05-01T18:55:04.387Z,31.29
2023-05-01T18:57:33.130Z,31.76
2023-05-01T19:00:01.217Z,31.88
2023-05-01T19:02:28.302Z,32.10
2023-05-01T19:04:57.993Z,32.24
2023-05-01T19:07:26.484Z,32.34
2023-05-01T19:09:53.478Z,32.51
2023-05-01T19:12:20.842Z,32.28
2023-05-01T19:14:47.683Z,32.58
2023-05-01T19:17:14.505Z,32.88
2023-05-01T19:19:41.358Z,32.70
2023-05-01T19:22:08.297Z,32.98
2023-05-01T19:24:35.087Z,33.02
2023-05-01T19:27:03.272Z,33.10
2023-05-01T19:29:31.707Z,33.20
2023-05-01T19:32:00.272Z,33.23
2023-05-01T19:34:28.293Z,33.52
2023-05-01T19:36:56.885Z,33.22
2023-05-01T19:39:23.974Z,33.35
2023-05-01T19:41:50.917Z,33.32
2023-05-01T19:44:17.929Z,33.77
2023-05-01T19:46:44.994Z,33.67
2023-05-01T19:49:11.956Z,33.67
2023-05-01T19:51:41.857Z,33.61
2023-05-01T19:54:08.624Z,33.91
2023-05-01T19:56:35.399Z,33.81
2023-05-01T19:59:02.197Z,33.83
2023-05-01T20:01:31.181Z,34.14
2023-05-01T20:03:58.203Z,34.05
2023-05-01T20:06:25.063Z,34.23
2023-05-01T20:08:53.157Z,34.42
2023-05-01T20:11:20.095Z,34.48
2023-05-01T20:13:46.847Z,34.29
2023-05-01T20:16:13.727Z,34.49
2023-05-01T20:18:40.618Z,34.45
2023-05-01T20:21:07.719Z,34.78
2023-05-01T20:23:34.787Z,34.63
2023-05-01T20:26:01.641Z,34.77
2023-05-01T20:28:30.541Z,34.84
2023-05-01T20:30:57.451Z,35.13
2023-05-01T20:33:24.623Z,35.40
2023-05-01T20:35:51.531Z,35.42
2023-05-01T20:38:18.401Z,35.78
2023-05-01T20:40:45.155Z,36.04
2023-05-01T20:43:12.839Z,35.97
2023-05-01T20:45:39.628Z,36.18
2023-05-01T20:48:06.542Z,36.34
2023-05-01T20:50:33.568Z,36.39
2023-05-01T20:53:00.630Z,36.44
2023-05-01T20:55:28.079Z,36.59
2023-05-01T20:57:54.864Z,36.96
2023-05-01T21:00:21.670Z,36.96
2023-05-01T21:02:48.559Z,37.30
2023-05-01T21:05:16.271Z,36.94
2023-05-01T21:07:43.114Z,37.36
2023-05-01T21:10:14.350Z,37.18
2023-05-01T21:12:43.790Z,37.46
2023-05-01T21:15:11.605Z,37.03
2023-05-01T21:17:40.448Z,37.46
2023-05-01T21:20:21.329Z,37.49
2023-05-01T21:22:48.957Z,37.63
2023-05-01T21:25:24.133Z,37.66
2023-05-01T21:27:51.126Z,38.05
2023-05-01T21:30:33.199Z,38.04
2023-05-01T21:33:04.500Z,38.23
2023-05-01T21:35:31.645Z,38.13
2023-05-01T21:37:59.277Z,38.39
2023-05-01T21:40:26.936Z,38.30
2023-05-01T21:42:54.661Z,38.09
2023-05-01T21:45:22.138Z,38.32
2023-05-01T21:47:50.790Z,38.04
2023-05-01T21:50:20.181Z,38.13
2023-05-01T21:52:48.973Z,38.02
2023-05-01T21:55:25.590Z,37.85
2023-05-01T21:57:53.317Z,38.03
2023-05-01T22:00:21.253Z,38.17
2023-05-01T22:02:50.465Z,38.49
2023-05-01T22:05:22.317Z,38.49
2023-05-01T22:07:51.988Z,38.56
2023-05-01T22:10:19.958Z,38.54
2023-05-01T22:12:49.298Z,38.70
2023-05-01T22:15:16.899Z,38.62
2023-05-01T22:17:44.863Z,38.61
2023-05-01T22:20:12.351Z,38.74
2023-05-01T22:22:41.185Z,38.35
2023-05-01T22:25:09.315Z,38.27
2023-05-01T22:27:36.241Z,38.46
2023-05-01T22:30:04.394Z,38.20
2023-05-01T22:32:31.300Z,38.18
2023-05-01T22:34:58.100Z,38.22
2023-05-01T22:37:25.679Z,38.27
2023-05-01T22:39:53.540Z,37.91
2023-05-01T22:42:20.718Z,38.02
2023-05-01T22:44:47.581Z,37.99
2023-05-01T22:47:14.407Z,38.16
2023-05-01T22:49:41.482Z,38.25
2023-05-01T22:52:08.352Z,38.29
2023-05-01T22:54:35.129Z,38.03
2023-05-01T22:57:04.813Z,38.15
2023-05-01T22:59:31.619Z,38.00
2023-05-01T23:01:58.513Z,37.83
2023-05-01T23:04:25.325Z,37.94
2023-05-01T23:06:52.564Z,38.14
2023-05-01T23:09:19.427Z,37.93
2023-05-01T23:11:47.615Z,38.23
2023-05-01T23:14:18.062Z,38.11
2023-05-01T23:16:44.921Z,38.23
2023-05-01T23:19:20.439Z,38.25
2023-05-01T23:21:47.893Z,38.04
2023-05-01T23:24:21.040Z,38.28
2023-05-01T23:26:47.793Z,38.00
2023-05-01T23:29:16.348Z,37.97
2023-05-01T23:31:47.907Z,38.08
2023-05-01T23:34:17.247Z,38.20
2023-05-01T23:36:47.684Z,38.34
2023-05-01T23:39:14.539Z,38.11
2023-05-01T23:41:41.618Z,38.08
2023-05-01T23:44:09.541Z,37.78
2023-05-01T23:46:37.207Z,37.87
2023-05-01T23:49:04.374Z,38.07
2023-05-01T23:51:32.007Z,37.98
2023-05-01T23:53:59.407Z,37.93
2023-05-01T23:56:26.373Z,37.84
2023-05-01T23:58:53.133Z,37.75
